sensor_id;sensor_type;location;lat;lon;timestamp;P1;durP1;ratioP1;P2;durP2;ratioP2
17796;SDS011;55596;53.554;9.916;2023-05-10T00:01:00;4.90;;;2.33;;
17796;SDS011;55596;53.554;9.916;2023-05-10T00:03:28;2.87;;;2.30;;
17796;SDS011;55596;53.554;9.916;2023-05-10T00:05:56;4.33;;;2.30;;
17796;SDS011;55596;53.554;9.916;2023-05-10T00:08:25;5.77;;;2.50;;
17796;SDS011;55596;53.554;9.916;2023-05-10T00:10:53;4.27;;;2.23;;
17796;SDS011;55596;53.554;9.916;2023-05-10T00:13:20;8.43;;;2.70;;
17796;SDS011;55596;53.554;9.916;2023-05-10T00:15:50;4.70;;;2.30;;
17796;SDS011;55596;53.554;9.916;2023-05-10T00:18:18;4.23;;;2.73;;
17796;SDS011;55596;53.554;9.916;2023-05-10T00:20:46;8.37;;;2.90;;
17796;SDS011;55596;53.554;9.916;2023-05-10T00:23:18;6.60;;;2.87;;
17796;SDS011;55596;53.554;9.916;2023-05-10T00:25:46;3.77;;;2.27;;
17796;SDS011;55596;53.554;9.916;2023-05-10T00:28:16;5.43;;;2.57;;
17796;SDS011;55596;53.554;9.916;2023-05-10T00:30:44;4.73;;;2.90;;
17796;SDS011;55596;53.554;9.916;2023-05-10T00:33:11;8.03;;;3.13;;
17796;SDS011;55596;53.554;9.916;2023-05-10T00:35:42;4.53;;;2.50;;
17796;SDS011;55596;53.554;9.916;2023-05-10T00:38:10;5.80;;;2.67;;
17796;SDS011;55596;53.554;9.916;2023-05-10T00:40:37;5.90;;;2.63;;
17796;SDS011;55596;53.554;9.916;2023-05-10T00:43:04;6.17;;;2.70;;
17796;SDS011;55596;53.554;9.916;2023-05-10T00:45:31;6.43;;;2.90;;
17796;SDS011;55596;53.554;9.916;2023-05-10T00:47:59;3.30;;;2.50;;
17796;SDS011;55596;53.554;9.916;2023-05-10T00:50:31;5.80;;;2.87;;
17796;SDS011;55596;53.554;9.916;2023-05-10T00:53:04;5.80;;;2.87;;
17796;SDS011;55596;53.554;9.916;2023-05-10T00:55:33;3.43;;;2.43;;
17796;SDS011;55596;53.554;9.916;2023-05-10T00:58:01;4.47;;;2.50;;
17796;SDS011;55596;53.554;9.916;2023-05-10T01:00:28;4.03;;;2.77;;
17796;SDS011;55596;53.554;9.916;2023-05-10T01:02:55;4.53;;;2.40;;
17796;SDS011;55596;53.554;9.916;2023-05-10T01:05:26;6.40;;;2.87;;
17796;SDS011;55596;53.554;9.916;2023-05-10T01:07:56;7.60;;;3.10;;
17796;SDS011;55596;53.554;9.916;2023-05-10T01:10:25;6.87;;;3.10;;
17796;SDS011;55596;53.554;9.916;2023-05-10T01:12:58;5.90;;;2.90;;
17796;SDS011;55596;53.554;9.916;2023-05-10T01:15:26;4.10;;;3.00;;
17796;SDS011;55596;53.554;9.916;2023-05-10T01:17:56;6.90;;;3.13;;
17796;SDS011;55596;53.554;9.916;2023-05-10T01:20:26;4.73;;;3.00;;
17796;SDS011;55596;53.554;9.916;2023-05-10T01:23:03;3.90;;;3.03;;
17796;SDS011;55596;53.554;9.916;2023-05-10T01:28:42;7.00;;;3.03;;
17796;SDS011;55596;53.554;9.916;2023-05-10T01:31:21;4.60;;;2.57;;
17796;SDS011;55596;53.554;9.916;2023-05-10T01:33:52;5.03;;;2.80;;
17796;SDS011;55596;53.554;9.916;2023-05-10T01:36:25;6.03;;;3.07;;
17796;SDS011;55596;53.554;9.916;2023-05-10T01:38:55;6.27;;;3.00;;
17796;SDS011;55596;53.554;9.916;2023-05-10T01:41:28;3.07;;;2.63;;
17796;SDS011;55596;53.554;9.916;2023-05-10T01:44:00;5.67;;;2.80;;
17796;SDS011;55596;53.554;9.916;2023-05-10T01:46:31;4.93;;;2.80;;
17796;SDS011;55596;53.554;9.916;2023-05-10T01:49:13;8.67;;;2.97;;
17796;SDS011;55596;53.554;9.916;2023-05-10T01:51:45;5.27;;;3.10;;
17796;SDS011;55596;53.554;9.916;2023-05-10T01:54:14;5.90;;;2.63;;
17796;SDS011;55596;53.554;9.916;2023-05-10T01:56:43;4.47;;;3.00;;
17796;SDS011;55596;53.554;9.916;2023-05-10T01:59:11;5.93;;;3.20;;
17796;SDS011;55596;53.554;9.916;2023-05-10T02:01:40;4.17;;;2.87;;
17796;SDS011;55596;53.554;9.916;2023-05-10T02:04:08;5.50;;;2.73;;
17796;SDS011;55596;53.554;9.916;2023-05-10T02:06:39;6.43;;;3.23;;
17796;SDS011;55596;53.554;9.916;2023-05-10T02:09:10;7.83;;;2.73;;
17796;SDS011;55596;53.554;9.916;2023-05-10T02:11:38;8.13;;;2.93;;
17796;SDS011;55596;53.554;9.916;2023-05-10T02:14:06;7.97;;;3.03;;
17796;SDS011;55596;53.554;9.916;2023-05-10T02:16:34;6.43;;;3.13;;
17796;SDS011;55596;53.554;9.916;2023-05-10T02:19:05;7.10;;;3.00;;
17796;SDS011;55596;53.554;9.916;2023-05-10T02:21:34;5.10;;;3.17;;
17796;SDS011;55596;53.554;9.916;2023-05-10T02:24:05;3.33;;;2.97;;
17796;SDS011;55596;53.554;9.916;2023-05-10T02:26:36;6.17;;;3.17;;
17796;SDS011;55596;53.554;9.916;2023-05-10T02:29:05;4.53;;;3.20;;
17796;SDS011;55596;53.554;9.916;2023-05-10T02:31:34;4.13;;;2.90;;
17796;SDS011;55596;53.554;9.916;2023-05-10T02:34:03;4.50;;;3.10;;
17796;SDS011;55596;53.554;9.916;2023-05-10T02:36:36;3.97;;;3.20;;
17796;SDS011;55596;53.554;9.916;2023-05-10T02:39:04;5.60;;;3.20;;
17796;SDS011;55596;53.554;9.916;2023-05-10T02:41:35;7.23;;;3.33;;
17796;SDS011;55596;53.554;9.916;2023-05-10T02:44:02;6.70;;;3.30;;
17796;SDS011;55596;53.554;9.916;2023-05-10T02:46:32;6.10;;;3.00;;
17796;SDS011;55596;53.554;9.916;2023-05-10T02:49:02;5.87;;;3.50;;
17796;SDS011;55596;53.554;9.916;2023-05-10T02:51:30;6.17;;;3.10;;
17796;SDS011;55596;53.554;9.916;2023-05-10T02:54:01;7.87;;;3.37;;
17796;SDS011;55596;53.554;9.916;2023-05-10T02:56:31;5.87;;;3.30;;
17796;SDS011;55596;53.554;9.916;2023-05-10T02:59:00;4.90;;;3.23;;
17796;SDS011;55596;53.554;9.916;2023-05-10T03:01:27;6.40;;;3.53;;
17796;SDS011;55596;53.554;9.916;2023-05-10T03:03:58;5.50;;;3.40;;
17796;SDS011;55596;53.554;9.916;2023-05-10T03:06:25;6.03;;;3.10;;
17796;SDS011;55596;53.554;9.916;2023-05-10T03:08:53;5.00;;;3.10;;
17796;SDS011;55596;53.554;9.916;2023-05-10T03:11:28;5.17;;;3.07;;
17796;SDS011;55596;53.554;9.916;2023-05-10T03:14:04;6.47;;;2.90;;
17796;SDS011;55596;53.554;9.916;2023-05-10T03:16:36;3.30;;;2.80;;
17796;SDS011;55596;53.554;9.916;2023-05-10T03:19:06;3.40;;;2.93;;
17796;SDS011;55596;53.554;9.916;2023-05-10T03:21:35;5.97;;;3.03;;
17796;SDS011;55596;53.554;9.916;2023-05-10T03:24:05;7.97;;;3.33;;
17796;SDS011;55596;53.554;9.916;2023-05-10T03:26:35;3.30;;;3.00;;
17796;SDS011;55596;53.554;9.916;2023-05-10T03:29:04;6.17;;;2.87;;
17796;SDS011;55596;53.554;9.916;2023-05-10T03:31:31;4.23;;;3.33;;
17796;SDS011;55596;53.554;9.916;2023-05-10T03:33:59;4.40;;;3.10;;
17796;SDS011;55596;53.554;9.916;2023-05-10T03:36:26;7.50;;;3.53;;
17796;SDS011;55596;53.554;9.916;2023-05-10T03:38:53;5.03;;;3.07;;
17796;SDS011;55596;53.554;9.916;2023-05-10T03:41:20;5.83;;;2.97;;
17796;SDS011;55596;53.554;9.916;2023-05-10T03:43:49;8.93;;;3.47;;
17796;SDS011;55596;53.554;9.916;2023-05-10T03:46:19;9.07;;;3.23;;
17796;SDS011;55596;53.554;9.916;2023-05-10T03:48:47;6.53;;;3.40;;
17796;SDS011;55596;53.554;9.916;2023-05-10T03:51:14;6.50;;;3.87;;
17796;SDS011;55596;53.554;9.916;2023-05-10T03:53:41;5.80;;;3.57;;
17796;SDS011;55596;53.554;9.916;2023-05-10T03:56:12;5.10;;;3.60;;
17796;SDS011;55596;53.554;9.916;2023-05-10T03:58:42;4.83;;;3.27;;
17796;SDS011;55596;53.554;9.916;2023-05-10T04:01:15;3.93;;;3.03;;
17796;SDS011;55596;53.554;9.916;2023-05-10T04:03:47;5.23;;;3.37;;
17796;SDS011;55596;53.554;9.916;2023-05-10T04:06:14;5.53;;;2.80;;
17796;SDS011;55596;53.554;9.916;2023-05-10T04:08:41;6.60;;;3.50;;
17796;SDS011;55596;53.554;9.916;2023-05-10T04:11:09;5.27;;;3.23;;
17796;SDS011;55596;53.554;9.916;2023-05-10T04:13:37;4.97;;;3.17;;
17796;SDS011;55596;53.554;9.916;2023-05-10T04:16:08;4.47;;;3.20;;
17796;SDS011;55596;53.554;9.916;2023-05-10T04:18:40;8.53;;;3.43;;
17796;SDS011;55596;53.554;9.916;2023-05-10T04:21:11;5.50;;;3.60;;
17796;SDS011;55596;53.554;9.916;2023-05-10T04:23:39;7.00;;;3.37;;
17796;SDS011;55596;53.554;9.916;2023-05-10T04:26:11;4.07;;;3.17;;
17796;SDS011;55596;53.554;9.916;2023-05-10T04:28:38;7.07;;;3.40;;
17796;SDS011;55596;53.554;9.916;2023-05-10T04:31:06;3.87;;;3.30;;
17796;SDS011;55596;53.554;9.916;2023-05-10T04:33:34;5.27;;;3.40;;
17796;SDS011;55596;53.554;9.916;2023-05-10T04:36:06;5.73;;;2.97;;
17796;SDS011;55596;53.554;9.916;2023-05-10T04:38:33;6.50;;;3.27;;
17796;SDS011;55596;53.554;9.916;2023-05-10T04:41:04;4.03;;;2.90;;
17796;SDS011;55596;53.554;9.916;2023-05-10T04:43:34;5.43;;;3.30;;
17796;SDS011;55596;53.554;9.916;2023-05-10T04:46:01;4.90;;;3.13;;
17796;SDS011;55596;53.554;9.916;2023-05-10T04:48:42;5.43;;;3.60;;
17796;SDS011;55596;53.554;9.916;2023-05-10T04:51:25;8.40;;;3.53;;
17796;SDS011;55596;53.554;9.916;2023-05-10T04:53:53;4.03;;;3.20;;
17796;SDS011;55596;53.554;9.916;2023-05-10T04:56:22;9.30;;;3.43;;
17796;SDS011;55596;53.554;9.916;2023-05-10T04:58:52;5.07;;;3.20;;
17796;SDS011;55596;53.554;9.916;2023-05-10T05:01:20;6.37;;;3.67;;
17796;SDS011;55596;53.554;9.916;2023-05-10T05:03:51;6.90;;;3.23;;
17796;SDS011;55596;53.554;9.916;2023-05-10T05:06:18;5.03;;;3.47;;
17796;SDS011;55596;53.554;9.916;2023-05-10T05:08:49;3.70;;;3.27;;
17796;SDS011;55596;53.554;9.916;2023-05-10T05:11:20;5.83;;;3.43;;
17796;SDS011;55596;53.554;9.916;2023-05-10T05:13:58;5.30;;;3.63;;
17796;SDS011;55596;53.554;9.916;2023-05-10T05:16:25;7.23;;;3.20;;
17796;SDS011;55596;53.554;9.916;2023-05-10T05:18:52;7.23;;;3.50;;
17796;SDS011;55596;53.554;9.916;2023-05-10T05:21:21;4.70;;;3.40;;
17796;SDS011;55596;53.554;9.916;2023-05-10T05:23:50;8.67;;;3.70;;
17796;SDS011;55596;53.554;9.916;2023-05-10T05:26:17;5.90;;;3.87;;
17796;SDS011;55596;53.554;9.916;2023-05-10T05:28:45;4.97;;;3.57;;
17796;SDS011;55596;53.554;9.916;2023-05-10T05:31:13;4.87;;;3.40;;
17796;SDS011;55596;53.554;9.916;2023-05-10T05:33:41;7.07;;;3.40;;
17796;SDS011;55596;53.554;9.916;2023-05-10T05:36:11;8.33;;;3.83;;
17796;SDS011;55596;53.554;9.916;2023-05-10T05:38:39;4.63;;;2.90;;
17796;SDS011;55596;53.554;9.916;2023-05-10T05:41:09;6.17;;;3.17;;
17796;SDS011;55596;53.554;9.916;2023-05-10T05:43:37;4.10;;;3.40;;
17796;SDS011;55596;53.554;9.916;2023-05-10T05:46:07;5.90;;;3.17;;
17796;SDS011;55596;53.554;9.916;2023-05-10T05:48:35;9.43;;;3.50;;
17796;SDS011;55596;53.554;9.916;2023-05-10T05:51:05;5.07;;;3.13;;
17796;SDS011;55596;53.554;9.916;2023-05-10T05:53:33;9.10;;;3.10;;
17796;SDS011;55596;53.554;9.916;2023-05-10T05:56:01;7.20;;;3.67;;
17796;SDS011;55596;53.554;9.916;2023-05-10T05:58:32;5.97;;;3.30;;
17796;SDS011;55596;53.554;9.916;2023-05-10T06:00:59;6.00;;;3.13;;
17796;SDS011;55596;53.554;9.916;2023-05-10T06:03:30;4.37;;;3.10;;
17796;SDS011;55596;53.554;9.916;2023-05-10T06:05:58;7.20;;;3.70;;
17796;SDS011;55596;53.554;9.916;2023-05-10T06:08:26;4.83;;;3.50;;
17796;SDS011;55596;53.554;9.916;2023-05-10T06:10:55;7.03;;;3.10;;
17796;SDS011;55596;53.554;9.916;2023-05-10T06:13:23;5.80;;;3.40;;
17796;SDS011;55596;53.554;9.916;2023-05-10T06:15:55;6.03;;;2.90;;
17796;SDS011;55596;53.554;9.916;2023-05-10T06:18:23;9.07;;;2.93;;
17796;SDS011;55596;53.554;9.916;2023-05-10T06:20:53;7.67;;;3.87;;
17796;SDS011;55596;53.554;9.916;2023-05-10T06:23:21;6.43;;;2.97;;
17796;SDS011;55596;53.554;9.916;2023-05-10T06:25:50;5.03;;;2.97;;
17796;SDS011;55596;53.554;9.916;2023-05-10T06:28:18;7.27;;;3.70;;
17796;SDS011;55596;53.554;9.916;2023-05-10T06:30:46;7.93;;;3.70;;
17796;SDS011;55596;53.554;9.916;2023-05-10T06:33:15;4.43;;;3.37;;
17796;SDS011;55596;53.554;9.916;2023-05-10T06:35:44;9.00;;;3.30;;
17796;SDS011;55596;53.554;9.916;2023-05-10T06:38:12;6.23;;;3.20;;
17796;SDS011;55596;53.554;9.916;2023-05-10T06:40:43;4.20;;;3.20;;
17796;SDS011;55596;53.554;9.916;2023-05-10T06:43:10;5.40;;;3.27;;
17796;SDS011;55596;53.554;9.916;2023-05-10T06:45:38;4.33;;;3.10;;
17796;SDS011;55596;53.554;9.916;2023-05-10T06:48:14;5.23;;;3.30;;
17796;SDS011;55596;53.554;9.916;2023-05-10T06:50:42;6.87;;;3.60;;
17796;SDS011;55596;53.554;9.916;2023-05-10T06:53:10;8.27;;;3.70;;
17796;SDS011;55596;53.554;9.916;2023-05-10T06:55:40;7.13;;;3.20;;
17796;SDS011;55596;53.554;9.916;2023-05-10T06:58:07;4.43;;;3.13;;
17796;SDS011;55596;53.554;9.916;2023-05-10T07:00:43;6.93;;;3.23;;
17796;SDS011;55596;53.554;9.916;2023-05-10T07:03:12;5.47;;;3.43;;
17796;SDS011;55596;53.554;9.916;2023-05-10T07:05:40;5.43;;;3.37;;
17796;SDS011;55596;53.554;9.916;2023-05-10T07:08:10;5.40;;;3.40;;
17796;SDS011;55596;53.554;9.916;2023-05-10T07:10:38;5.47;;;3.77;;
17796;SDS011;55596;53.554;9.916;2023-05-10T07:13:11;4.93;;;3.67;;
17796;SDS011;55596;53.554;9.916;2023-05-10T07:15:46;6.30;;;3.60;;
17796;SDS011;55596;53.554;9.916;2023-05-10T07:18:16;7.73;;;3.37;;
17796;SDS011;55596;53.554;9.916;2023-05-10T07:20:45;3.63;;;2.83;;
17796;SDS011;55596;53.554;9.916;2023-05-10T07:23:17;5.10;;;3.00;;
17796;SDS011;55596;53.554;9.916;2023-05-10T07:25:45;5.20;;;3.10;;
17796;SDS011;55596;53.554;9.916;2023-05-10T07:28:16;5.07;;;3.20;;
17796;SDS011;55596;53.554;9.916;2023-05-10T07:30:45;7.27;;;3.00;;
17796;SDS011;55596;53.554;9.916;2023-05-10T07:33:14;4.40;;;2.70;;
17796;SDS011;55596;53.554;9.916;2023-05-10T07:35:41;3.43;;;2.90;;
17796;SDS011;55596;53.554;9.916;2023-05-10T07:38:11;5.47;;;3.07;;
17796;SDS011;55596;53.554;9.916;2023-05-10T07:40:39;9.07;;;3.40;;
17796;SDS011;55596;53.554;9.916;2023-05-10T07:43:06;9.97;;;3.33;;
17796;SDS011;55596;53.554;9.916;2023-05-10T07:45:33;7.60;;;3.20;;
17796;SDS011;55596;53.554;9.916;2023-05-10T07:48:04;7.70;;;3.10;;
17796;SDS011;55596;53.554;9.916;2023-05-10T07:50:34;5.63;;;2.70;;
17796;SDS011;55596;53.554;9.916;2023-05-10T07:53:02;7.90;;;3.30;;
17796;SDS011;55596;53.554;9.916;2023-05-10T07:55:33;4.68;;;3.00;;
17796;SDS011;55596;53.554;9.916;2023-05-10T07:58:01;9.65;;;3.35;;
17796;SDS011;55596;53.554;9.916;2023-05-10T08:00:28;5.90;;;3.20;;
17796;SDS011;55596;53.554;9.916;2023-05-10T08:02:56;10.05;;;2.95;;
17796;SDS011;55596;53.554;9.916;2023-05-10T08:05:23;7.43;;;3.20;;
17796;SDS011;55596;53.554;9.916;2023-05-10T08:07:50;8.23;;;2.97;;
17796;SDS011;55596;53.554;9.916;2023-05-10T08:10:17;5.70;;;2.97;;
17796;SDS011;55596;53.554;9.916;2023-05-10T08:12:49;7.10;;;3.30;;
17796;SDS011;55596;53.554;9.916;2023-05-10T08:15:16;7.35;;;2.63;;
17796;SDS011;55596;53.554;9.916;2023-05-10T08:17:43;6.53;;;3.03;;
17796;SDS011;55596;53.554;9.916;2023-05-10T08:20:11;4.43;;;2.88;;
17796;SDS011;55596;53.554;9.916;2023-05-10T08:22:44;8.25;;;3.30;;
17796;SDS011;55596;53.554;9.916;2023-05-10T08:25:11;4.50;;;2.78;;
17796;SDS011;55596;53.554;9.916;2023-05-10T08:27:39;6.20;;;3.28;;
17796;SDS011;55596;53.554;9.916;2023-05-10T08:30:08;7.25;;;2.97;;
17796;SDS011;55596;53.554;9.916;2023-05-10T08:32:38;5.10;;;3.38;;
17796;SDS011;55596;53.554;9.916;2023-05-10T08:35:05;4.80;;;2.80;;
17796;SDS011;55596;53.554;9.916;2023-05-10T08:37:32;5.32;;;3.05;;
17796;SDS011;55596;53.554;9.916;2023-05-10T08:40:00;7.57;;;3.17;;
17796;SDS011;55596;53.554;9.916;2023-05-10T08:42:28;7.10;;;3.22;;
17796;SDS011;55596;53.554;9.916;2023-05-10T08:45:00;24.33;;;4.07;;
17796;SDS011;55596;53.554;9.916;2023-05-10T08:47:31;9.37;;;3.47;;
17796;SDS011;55596;53.554;9.916;2023-05-10T08:50:05;5.43;;;3.60;;
17796;SDS011;55596;53.554;9.916;2023-05-10T08:52:37;6.60;;;3.37;;
17796;SDS011;55596;53.554;9.916;2023-05-10T08:55:06;5.77;;;3.10;;
17796;SDS011;55596;53.554;9.916;2023-05-10T08:57:33;4.53;;;3.20;;
17796;SDS011;55596;53.554;9.916;2023-05-10T09:00:03;6.00;;;3.47;;
17796;SDS011;55596;53.554;9.916;2023-05-10T09:02:33;3.93;;;3.20;;
17796;SDS011;55596;53.554;9.916;2023-05-10T09:05:03;10.23;;;3.40;;
17796;SDS011;55596;53.554;9.916;2023-05-10T09:07:30;6.57;;;3.30;;
17796;SDS011;55596;53.554;9.916;2023-05-10T09:09:59;7.13;;;3.17;;
17796;SDS011;55596;53.554;9.916;2023-05-10T09:12:37;6.17;;;3.50;;
17796;SDS011;55596;53.554;9.916;2023-05-10T09:15:08;6.73;;;3.40;;
17796;SDS011;55596;53.554;9.916;2023-05-10T09:17:38;8.87;;;3.67;;
17796;SDS011;55596;53.554;9.916;2023-05-10T09:20:10;9.07;;;3.97;;
17796;SDS011;55596;53.554;9.916;2023-05-10T09:22:40;5.83;;;3.93;;
17796;SDS011;55596;53.554;9.916;2023-05-10T09:25:08;5.30;;;3.83;;
17796;SDS011;55596;53.554;9.916;2023-05-10T09:27:36;6.40;;;3.77;;
17796;SDS011;55596;53.554;9.916;2023-05-10T09:30:05;11.00;;;3.73;;
17796;SDS011;55596;53.554;9.916;2023-05-10T09:32:38;7.10;;;4.43;;
17796;SDS011;55596;53.554;9.916;2023-05-10T09:35:06;9.43;;;4.27;;
17796;SDS011;55596;53.554;9.916;2023-05-10T09:37:38;8.83;;;4.00;;
17796;SDS011;55596;53.554;9.916;2023-05-10T09:40:07;5.80;;;4.10;;
17796;SDS011;55596;53.554;9.916;2023-05-10T09:42:35;8.33;;;4.40;;
17796;SDS011;55596;53.554;9.916;2023-05-10T09:45:03;10.53;;;4.70;;
17796;SDS011;55596;53.554;9.916;2023-05-10T09:47:34;7.57;;;4.90;;
17796;SDS011;55596;53.554;9.916;2023-05-10T09:50:03;9.30;;;5.10;;
17796;SDS011;55596;53.554;9.916;2023-05-10T09:52:31;7.23;;;4.80;;
17796;SDS011;55596;53.554;9.916;2023-05-10T09:55:13;6.07;;;5.17;;
17796;SDS011;55596;53.554;9.916;2023-05-10T09:57:40;7.67;;;5.67;;
17796;SDS011;55596;53.554;9.916;2023-05-10T10:00:09;6.03;;;5.10;;
17796;SDS011;55596;53.554;9.916;2023-05-10T10:02:37;9.83;;;5.20;;
17796;SDS011;55596;53.554;9.916;2023-05-10T10:05:13;6.77;;;6.10;;
17796;SDS011;55596;53.554;9.916;2023-05-10T10:07:44;12.20;;;6.57;;
17796;SDS011;55596;53.554;9.916;2023-05-10T10:10:11;8.70;;;6.60;;
17796;SDS011;55596;53.554;9.916;2023-05-10T10:12:40;15.57;;;7.37;;
17796;SDS011;55596;53.554;9.916;2023-05-10T10:15:09;13.07;;;7.80;;
17796;SDS011;55596;53.554;9.916;2023-05-10T10:17:42;9.43;;;7.23;;
17796;SDS011;55596;53.554;9.916;2023-05-10T10:20:12;14.20;;;7.40;;
17796;SDS011;55596;53.554;9.916;2023-05-10T10:22:39;14.03;;;8.03;;
17796;SDS011;55596;53.554;9.916;2023-05-10T10:25:09;10.63;;;8.20;;
17796;SDS011;55596;53.554;9.916;2023-05-10T10:27:40;15.90;;;9.80;;
17796;SDS011;55596;53.554;9.916;2023-05-10T10:30:21;14.27;;;10.07;;
17796;SDS011;55596;53.554;9.916;2023-05-10T10:33:01;11.80;;;9.57;;
17796;SDS011;55596;53.554;9.916;2023-05-10T10:35:32;10.73;;;9.10;;
17796;SDS011;55596;53.554;9.916;2023-05-10T10:37:59;9.43;;;8.57;;
17796;SDS011;55596;53.554;9.916;2023-05-10T10:40:30;17.87;;;10.10;;
17796;SDS011;55596;53.554;9.916;2023-05-10T10:43:03;11.97;;;8.63;;
17796;SDS011;55596;53.554;9.916;2023-05-10T10:45:47;12.60;;;7.83;;
17796;SDS011;55596;53.554;9.916;2023-05-10T10:48:19;10.50;;;9.40;;
17796;SDS011;55596;53.554;9.916;2023-05-10T10:50:51;10.50;;;9.30;;
17796;SDS011;55596;53.554;9.916;2023-05-10T10:53:25;11.30;;;9.17;;
17796;SDS011;55596;53.554;9.916;2023-05-10T10:56:01;11.30;;;9.53;;
17796;SDS011;55596;53.554;9.916;2023-05-10T10:58:29;13.07;;;9.23;;
17796;SDS011;55596;53.554;9.916;2023-05-10T11:01:10;12.67;;;9.53;;
17796;SDS011;55596;53.554;9.916;2023-05-10T11:03:38;10.30;;;8.57;;
17796;SDS011;55596;53.554;9.916;2023-05-10T11:06:07;12.23;;;9.30;;
17796;SDS011;55596;53.554;9.916;2023-05-10T11:08:35;13.67;;;10.77;;
17796;SDS011;55596;53.554;9.916;2023-05-10T11:11:09;12.00;;;10.13;;
17796;SDS011;55596;53.554;9.916;2023-05-10T11:13:40;11.07;;;9.50;;
17796;SDS011;55596;53.554;9.916;2023-05-10T11:18:59;10.33;;;8.10;;
17796;SDS011;55596;53.554;9.916;2023-05-10T11:21:29;10.10;;;7.93;;
17796;SDS011;55596;53.554;9.916;2023-05-10T11:24:09;10.93;;;8.30;;
17796;SDS011;55596;53.554;9.916;2023-05-10T11:29:27;14.87;;;8.40;;
17796;SDS011;55596;53.554;9.916;2023-05-10T11:31:56;9.63;;;8.27;;
17796;SDS011;55596;53.554;9.916;2023-05-10T11:34:24;9.63;;;8.73;;
17796;SDS011;55596;53.554;9.916;2023-05-10T11:36:54;10.97;;;9.47;;
17796;SDS011;55596;53.554;9.916;2023-05-10T11:39:22;9.67;;;8.63;;
17796;SDS011;55596;53.554;9.916;2023-05-10T11:41:55;11.90;;;9.50;;
17796;SDS011;55596;53.554;9.916;2023-05-10T11:44:23;11.07;;;9.93;;
17796;SDS011;55596;53.554;9.916;2023-05-10T11:46:51;10.60;;;9.30;;
17796;SDS011;55596;53.554;9.916;2023-05-10T11:49:18;11.23;;;9.67;;
17796;SDS011;55596;53.554;9.916;2023-05-10T11:51:46;13.83;;;10.23;;
17796;SDS011;55596;53.554;9.916;2023-05-10T11:54:14;10.83;;;9.80;;
17796;SDS011;55596;53.554;9.916;2023-05-10T11:56:42;12.30;;;10.53;;
17796;SDS011;55596;53.554;9.916;2023-05-10T11:59:10;12.93;;;9.70;;
17796;SDS011;55596;53.554;9.916;2023-05-10T12:01:37;11.40;;;9.40;;
17796;SDS011;55596;53.554;9.916;2023-05-10T12:04:05;9.30;;;8.40;;
17796;SDS011;55596;53.554;9.916;2023-05-10T12:06:34;11.23;;;9.43;;
17796;SDS011;55596;53.554;9.916;2023-05-10T12:09:05;9.37;;;8.23;;
17796;SDS011;55596;53.554;9.916;2023-05-10T12:11:36;9.43;;;8.53;;
17796;SDS011;55596;53.554;9.916;2023-05-10T12:14:04;9.13;;;8.23;;
17796;SDS011;55596;53.554;9.916;2023-05-10T12:16:31;9.80;;;8.80;;
17796;SDS011;55596;53.554;9.916;2023-05-10T12:18:59;11.07;;;9.33;;
17796;SDS011;55596;53.554;9.916;2023-05-10T12:21:28;10.97;;;9.00;;
17796;SDS011;55596;53.554;9.916;2023-05-10T12:23:59;10.10;;;8.67;;
17796;SDS011;55596;53.554;9.916;2023-05-10T12:26:27;11.47;;;7.80;;
17796;SDS011;55596;53.554;9.916;2023-05-10T12:29:12;9.90;;;8.40;;
17796;SDS011;55596;53.554;9.916;2023-05-10T12:31:54;9.73;;;8.57;;
17796;SDS011;55596;53.554;9.916;2023-05-10T12:34:25;9.77;;;8.73;;
17796;SDS011;55596;53.554;9.916;2023-05-10T12:36:52;10.23;;;9.17;;
17796;SDS011;55596;53.554;9.916;2023-05-10T12:39:20;9.33;;;7.57;;
17796;SDS011;55596;53.554;9.916;2023-05-10T12:41:47;13.43;;;8.03;;
17796;SDS011;55596;53.554;9.916;2023-05-10T12:44:16;9.43;;;8.10;;
17796;SDS011;55596;53.554;9.916;2023-05-10T12:46:43;8.73;;;7.93;;
17796;SDS011;55596;53.554;9.916;2023-05-10T12:49:12;8.03;;;6.83;;
17796;SDS011;55596;53.554;9.916;2023-05-10T12:51:40;7.63;;;6.40;;
17796;SDS011;55596;53.554;9.916;2023-05-10T12:54:08;5.63;;;5.13;;
17796;SDS011;55596;53.554;9.916;2023-05-10T12:56:35;6.90;;;6.20;;
17796;SDS011;55596;53.554;9.916;2023-05-10T12:59:05;7.17;;;6.47;;
17796;SDS011;55596;53.554;9.916;2023-05-10T13:01:35;8.43;;;7.10;;
17796;SDS011;55596;53.554;9.916;2023-05-10T13:04:03;7.43;;;6.07;;
17796;SDS011;55596;53.554;9.916;2023-05-10T13:06:30;6.33;;;5.23;;
17796;SDS011;55596;53.554;9.916;2023-05-10T13:08:58;6.13;;;5.57;;
17796;SDS011;55596;53.554;9.916;2023-05-10T13:11:25;9.17;;;5.77;;
17796;SDS011;55596;53.554;9.916;2023-05-10T13:13:53;5.83;;;5.33;;
17796;SDS011;55596;53.554;9.916;2023-05-10T13:16:20;6.27;;;5.67;;
17796;SDS011;55596;53.554;9.916;2023-05-10T13:18:49;7.20;;;5.43;;
17796;SDS011;55596;53.554;9.916;2023-05-10T13:21:17;7.03;;;4.97;;
17796;SDS011;55596;53.554;9.916;2023-05-10T13:23:44;5.00;;;4.50;;
17796;SDS011;55596;53.554;9.916;2023-05-10T13:26:12;7.45;;;4.45;;
17796;SDS011;55596;53.554;9.916;2023-05-10T13:28:40;5.18;;;4.50;;
17796;SDS011;55596;53.554;9.916;2023-05-10T13:31:07;7.72;;;4.35;;
17796;SDS011;55596;53.554;9.916;2023-05-10T13:33:35;5.20;;;4.65;;
17796;SDS011;55596;53.554;9.916;2023-05-10T13:36:04;5.80;;;5.10;;
17796;SDS011;55596;53.554;9.916;2023-05-10T13:38:32;4.43;;;4.00;;
17796;SDS011;55596;53.554;9.916;2023-05-10T13:40:59;5.25;;;4.30;;
17796;SDS011;55596;53.554;9.916;2023-05-10T13:43:28;5.15;;;4.60;;
17796;SDS011;55596;53.554;9.916;2023-05-10T13:45:56;4.95;;;4.55;;
17796;SDS011;55596;53.554;9.916;2023-05-10T13:48:23;5.38;;;4.70;;
17796;SDS011;55596;53.554;9.916;2023-05-10T13:50:51;6.57;;;5.18;;
17796;SDS011;55596;53.554;9.916;2023-05-10T13:53:20;8.00;;;4.70;;
17796;SDS011;55596;53.554;9.916;2023-05-10T13:55:47;5.45;;;4.95;;
17796;SDS011;55596;53.554;9.916;2023-05-10T13:58:16;5.60;;;5.10;;
17796;SDS011;55596;53.554;9.916;2023-05-10T14:00:47;5.45;;;4.95;;
17796;SDS011;55596;53.554;9.916;2023-05-10T14:03:14;6.75;;;4.82;;
17796;SDS011;55596;53.554;9.916;2023-05-10T14:05:43;6.32;;;4.38;;
17796;SDS011;55596;53.554;9.916;2023-05-10T14:08:12;4.85;;;4.07;;
17796;SDS011;55596;53.554;9.916;2023-05-10T14:10:41;4.95;;;4.45;;
17796;SDS011;55596;53.554;9.916;2023-05-10T14:13:08;5.35;;;4.10;;
17796;SDS011;55596;53.554;9.916;2023-05-10T14:15:35;4.18;;;3.88;;
17796;SDS011;55596;53.554;9.916;2023-05-10T14:18:03;5.97;;;4.10;;
17796;SDS011;55596;53.554;9.916;2023-05-10T14:20:30;6.50;;;4.82;;
17796;SDS011;55596;53.554;9.916;2023-05-10T14:22:58;5.30;;;3.95;;
17796;SDS011;55596;53.554;9.916;2023-05-10T14:25:26;4.07;;;3.78;;
17796;SDS011;55596;53.554;9.916;2023-05-10T14:27:55;6.00;;;4.28;;
17796;SDS011;55596;53.554;9.916;2023-05-10T14:30:22;7.95;;;4.60;;
17796;SDS011;55596;53.554;9.916;2023-05-10T14:32:49;5.43;;;4.90;;
17796;SDS011;55596;53.554;9.916;2023-05-10T14:35:18;6.15;;;4.03;;
17796;SDS011;55596;53.554;9.916;2023-05-10T14:37:48;4.93;;;3.92;;
17796;SDS011;55596;53.554;9.916;2023-05-10T14:40:15;5.22;;;4.72;;
17796;SDS011;55596;53.554;9.916;2023-05-10T14:42:45;4.32;;;3.92;;
17796;SDS011;55596;53.554;9.916;2023-05-10T14:45:14;5.00;;;4.47;;
17796;SDS011;55596;53.554;9.916;2023-05-10T14:47:42;6.95;;;4.70;;
17796;SDS011;55596;53.554;9.916;2023-05-10T14:50:10;5.80;;;4.70;;
17796;SDS011;55596;53.554;9.916;2023-05-10T14:52:37;8.02;;;4.35;;
17796;SDS011;55596;53.554;9.916;2023-05-10T14:55:09;4.78;;;4.05;;
17796;SDS011;55596;53.554;9.916;2023-05-10T14:57:40;5.13;;;4.45;;
17796;SDS011;55596;53.554;9.916;2023-05-10T15:00:18;5.00;;;4.43;;
17796;SDS011;55596;53.554;9.916;2023-05-10T15:02:46;5.72;;;4.88;;
17796;SDS011;55596;53.554;9.916;2023-05-10T15:05:14;5.20;;;4.70;;
17796;SDS011;55596;53.554;9.916;2023-05-10T15:07:42;5.17;;;4.37;;